Aérodrome :
LOGIN :

S'inscrire | Disclaimer

   EN    FR    IT 

 










Légende :    VFR   VFR Marginal   IFR   IFR Intensif   IFR Très Intensif
Visi : 
Plafond : 
>= 8 km
>= 3000ft
5 à 8 km
1000 à 3000 ft
1500m à 5 km
500 à 1000 ft
800 à 1500m
200 à 500 ft
< 800m
< 200 ft
Symboles :   Orages  Brouillard  Fortes neiges  Fortes précipitations  Vent > 20 kt
SIGMETs :   Divers  Orages  Givrage  Turbulence  Onde Orograph.  Cendres Volcan.







- Altitude de l'aérodrome : 41 ft


LIRE - Pratica di Mare Air Base Pomezia

DERNIER METAR :
  • 222055Z 18002KT 8000 -RA SCT040 SCT070 19/18 Q1013 RMK OVC VIS MIN 8000 WIND THR13 21002KT WIND THR31 20002KT BLU

METARs EXPIRÉS :
  • 221955Z 22001KT 9999 SCT040 BKN070 19/18 Q1013 RMK OVC VIS MIN 9999 WIND THR13 15001KT WIND THR31 22002KT BLU
  • 221855Z 09003KT 9999 SCT040 BKN070 20/19 Q1013 RMK OVC VIS MIN 9999 WIND THR13 11003KT WIND THR31 10003KT BLU

TAF TAF LIRE
Valide du 22 à 21h jusqu'au 23 à 06h UTC


222000Z 2221/2306 16005KT 9999 SCT030 BKN070
TEMPO 2222/2224 5000 RA BKN030
TEMPO 2300/2306 TSRA FEW020CB BKN020
Pas de NOTAMs connus pour ce terrain.
2 SIGMETs publiés pour la FIR Roma (LIRR) :
 
Orages noyés dans la masse
LIRR SIGMET 8 VALID 222200/230000 LIIB
LIRR ROMA FIR EMBD TS FCST WI N3630 E01355 - N3630 E01704 - N3845 E01637 - N4113 E01506 - N4125 E01422 - N4249 E01307 - N4152 E01147 - N3855 E01146 - N3630 E01355 TOP ABV FL260 MOV ENE INTSF=
Orages noyés dans la masse
LIRR SIGMET 7 VALID 222000/222200 LIIB
LIRR ROMA FIR EMBD TS FCST WI N3700 E01342 - N3630 E01705 - N3845 E01637 - N4113 E01506 - N4125 E01422 - N4221 E01334 - N3856 E01146 - N3700 E01342 TOP ABV FL260 MOV ENE INTSF=



MET'MAP, la Météo Aéronautique d'un coup d'oeil ! - Copyright ORBIFLY Décembre 2007 - Disclaimer

ORBIFLY MET'MAP TEAM :

Programmation & Développement : Alexandra Zaïnal
Conception & Développement : Baudouin d'Aumeries
Co-Programmation & Développement : Marc-Olivier Méhu
Soutien technique & logistique : Manuel Goepfert

Contact : metmap@orbifly.com




SOURCES & CREDITS :

   NOAA